createdAt,value
2019-02-06T00:00:59.493Z,409.07
2019-02-06T00:01:59.521Z,408.62
2019-02-06T00:02:59.510Z,408.38
2019-02-06T00:03:59.466Z,409.04
2019-02-06T00:04:59.459Z,409.97
2019-02-06T00:05:59.466Z,407.95
2019-02-06T00:06:59.438Z,409.88
2019-02-06T00:07:59.513Z,408.79
2019-02-06T00:08:59.422Z,410.27
2019-02-06T00:09:59.410Z,408.96
2019-02-06T00:10:59.403Z,408.84
2019-02-06T00:42:53.238Z,408.36
2019-02-06T00:43:21.191Z,409.19
2019-02-06T00:44:21.228Z,409.49
2019-02-06T00:45:21.168Z,408.99
2019-02-06T00:46:21.150Z,409.34
2019-02-06T00:47:21.136Z,409.32
2019-02-06T00:48:21.124Z,409.30
2019-02-06T00:49:21.126Z,409.29
2019-02-06T00:50:21.106Z,408.91
2019-02-06T00:51:21.106Z,408.21
2019-02-06T00:52:21.089Z,408.94
2019-02-06T00:53:21.066Z,408.72
2019-02-06T00:54:21.091Z,407.87
2019-02-06T00:55:21.060Z,409.06
2019-02-06T00:56:21.046Z,409.77
2019-02-06T00:57:21.047Z,409.48
2019-02-06T00:58:21.021Z,408.61
2019-02-06T00:59:21.033Z,409.43
2019-02-06T01:00:21.000Z,409.69
2019-02-06T01:01:20.985Z,409.56
2019-02-06T01:02:20.987Z,408.73
2019-02-06T01:03:20.982Z,409.86
2019-02-06T01:04:20.965Z,409.68
2019-02-06T01:05:20.973Z,408.75
2019-02-06T01:06:20.942Z,408.67
2019-02-06T01:07:20.933Z,409.06
2019-02-06T01:08:20.925Z,408.96
2019-02-06T01:09:20.890Z,410.42
2019-02-06T01:10:20.909Z,409.33
2019-02-06T01:11:20.887Z,409.00
2019-02-06T01:12:20.894Z,408.68
2019-02-06T01:13:20.859Z,408.66
2019-02-06T01:14:20.860Z,408.36
2019-02-06T01:15:20.858Z,407.73
2019-02-06T01:16:20.842Z,408.10
2019-02-06T01:17:20.812Z,408.44
2019-02-06T01:18:20.810Z,408.34
2019-02-06T01:19:20.801Z,408.39
2019-02-06T01:20:20.806Z,408.59
2019-02-06T01:21:20.792Z,409.57
2019-02-06T01:22:20.767Z,408.82
2019-02-06T01:23:20.753Z,409.29
2019-02-06T01:24:20.759Z,409.32
2019-02-06T01:25:20.748Z,408.58
2019-02-06T01:26:20.716Z,408.60
2019-02-06T01:27:20.719Z,407.71
2019-02-06T01:28:20.697Z,407.22
2019-02-06T01:29:20.683Z,409.17
2019-02-06T01:30:20.697Z,407.48
2019-02-06T01:31:20.676Z,407.92
2019-02-06T01:32:20.657Z,408.69
2019-02-06T01:33:20.637Z,409.10
2019-02-06T01:34:20.632Z,408.39
2019-02-06T01:35:20.639Z,408.31
2019-02-06T01:36:20.614Z,408.20
2019-02-06T01:37:20.591Z,409.15
2019-02-06T01:38:20.592Z,408.50
2019-02-06T01:39:20.571Z,408.84
2019-02-06T01:40:20.579Z,408.76
2019-02-06T01:41:20.549Z,407.62
2019-02-06T01:42:20.566Z,407.36
2019-02-06T01:43:20.546Z,408.31
2019-02-06T01:44:20.532Z,408.45
2019-02-06T01:45:20.532Z,408.88
2019-02-06T01:46:20.500Z,408.39
2019-02-06T01:47:20.486Z,408.73
2019-02-06T01:48:20.486Z,409.09
2019-02-06T01:49:20.474Z,409.52
2019-02-06T01:50:20.472Z,408.71
2019-02-06T01:51:20.440Z,410.11
2019-02-06T01:52:20.422Z,408.45
2019-02-06T01:53:20.425Z,409.83
2019-02-06T01:54:20.414Z,408.06
2019-02-06T01:55:20.449Z,409.62
2019-02-06T01:56:20.396Z,409.64
2019-02-06T01:57:20.386Z,408.10
2019-02-06T01:58:20.356Z,408.30
2019-02-06T01:59:20.360Z,409.11
2019-02-06T02:00:20.435Z,408.20
2019-02-06T02:01:20.348Z,408.84
2019-02-06T02:02:20.324Z,409.22
2019-02-06T02:03:20.314Z,409.04
2019-02-06T02:04:20.296Z,409.22
2019-02-06T02:05:20.303Z,408.74
2019-02-06T02:06:20.304Z,409.44
2019-02-06T02:07:20.269Z,409.17
2019-02-06T02:08:20.263Z,409.08
2019-02-06T02:09:20.255Z,408.77
2019-02-06T02:10:20.238Z,409.00
2019-02-06T02:11:20.256Z,408.68
2019-02-06T02:12:20.211Z,409.20
2019-02-06T02:13:20.204Z,408.40
2019-02-06T02:14:20.212Z,408.35
2019-02-06T02:15:20.171Z,407.80
2019-02-06T02:16:20.181Z,408.43
2019-02-06T02:17:20.167Z,408.21
2019-02-06T02:18:20.156Z,408.95
2019-02-06T02:19:20.128Z,407.78
2019-02-06T02:20:20.123Z,408.00
2019-02-06T02:21:20.142Z,409.57
2019-02-06T02:22:20.102Z,408.31
2019-02-06T02:23:20.092Z,408.76
2019-02-06T02:24:20.098Z,409.52
2019-02-06T02:25:20.073Z,410.08
2019-02-06T02:26:20.055Z,409.31
2019-02-06T02:27:20.074Z,409.91
2019-02-06T02:28:20.045Z,408.63
2019-02-06T02:29:20.034Z,409.14
2019-02-06T02:30:20.013Z,408.09
2019-02-06T02:31:20.009Z,409.16
2019-02-06T02:32:20.029Z,408.83
2019-02-06T02:33:19.981Z,409.07
2019-02-06T02:34:19.972Z,408.62
2019-02-06T02:35:19.963Z,407.81
2019-02-06T02:36:19.950Z,407.70
2019-02-06T02:37:19.960Z,407.56
2019-02-06T02:38:19.929Z,408.06
2019-02-06T02:39:19.928Z,408.52
2019-02-06T02:40:19.900Z,408.71
2019-02-06T02:41:19.907Z,409.05
2019-02-06T02:42:19.898Z,408.93
2019-02-06T02:43:19.871Z,408.66
2019-02-06T02:44:19.859Z,409.01
2019-02-06T02:45:19.843Z,408.95
2019-02-06T02:46:19.836Z,409.07
2019-02-06T02:47:19.853Z,408.73
2019-02-06T02:48:19.827Z,409.00
2019-02-06T02:49:19.801Z,409.43
2019-02-06T02:50:19.808Z,408.87
2019-02-06T02:51:19.779Z,409.90
2019-02-06T02:52:19.789Z,409.38
2019-02-06T02:53:19.757Z,409.92
2019-02-06T02:54:19.748Z,410.25
2019-02-06T02:55:19.749Z,409.91
2019-02-06T02:56:19.760Z,408.46
2019-02-06T02:57:19.762Z,409.38
2019-02-06T02:58:19.712Z,409.76
2019-02-06T02:59:19.701Z,408.93
2019-02-06T03:00:19.695Z,408.31
2019-02-06T03:01:19.685Z,409.14
2019-02-06T03:02:19.681Z,408.95
2019-02-06T03:03:19.655Z,409.45
2019-02-06T03:04:19.639Z,409.28
2019-02-06T03:05:19.635Z,408.05
2019-02-06T03:06:27.766Z,409.35
2019-02-06T03:07:20.616Z,409.81
2019-02-06T03:08:19.649Z,409.32
2019-02-06T03:09:19.595Z,408.52
2019-02-06T03:10:19.576Z,408.84
2019-02-06T03:11:19.570Z,409.76
2019-02-06T03:12:19.600Z,409.12
2019-02-06T03:13:19.538Z,408.63
2019-02-06T03:14:19.522Z,409.13
2019-02-06T03:15:19.517Z,408.46
2019-02-06T03:16:19.501Z,409.08
2019-02-06T03:17:19.522Z,409.41
2019-02-06T03:18:19.498Z,408.99
2019-02-06T03:19:19.468Z,408.43
2019-02-06T03:20:19.467Z,408.96
2019-02-06T03:21:19.453Z,409.15
2019-02-06T03:22:19.465Z,408.15
2019-02-06T03:23:19.437Z,408.93
2019-02-06T03:24:19.416Z,409.26
2019-02-06T03:25:19.410Z,408.92
2019-02-06T03:26:19.408Z,408.81
2019-02-06T03:27:19.404Z,409.09
2019-02-06T03:28:19.393Z,409.97
2019-02-06T03:29:19.357Z,409.56
2019-02-06T03:30:19.730Z,409.10
2019-02-06T03:35:10.515Z,408.39
2019-02-06T03:35:49.486Z,409.85
2019-02-06T03:36:49.480Z,409.74
2019-02-06T03:37:49.475Z,409.48
2019-02-06T03:38:49.475Z,410.66
2019-02-06T03:39:49.450Z,410.56
2019-02-06T03:40:49.434Z,409.82
2019-02-06T03:41:49.416Z,409.00
2019-02-06T03:42:49.401Z,408.89
2019-02-06T03:43:49.416Z,409.46
2019-02-06T03:44:49.390Z,409.72
2019-02-06T03:45:49.377Z,409.73
2019-02-06T03:46:49.359Z,409.92
2019-02-06T03:47:49.361Z,410.00
2019-02-06T03:48:49.359Z,409.73
2019-02-06T03:49:49.338Z,409.86
2019-02-06T03:50:49.351Z,408.98
2019-02-06T03:51:49.333Z,408.99
2019-02-06T03:52:49.308Z,408.64
2019-02-06T03:53:49.298Z,409.04
2019-02-06T03:54:49.279Z,409.00
2019-02-06T03:55:49.270Z,408.96
2019-02-06T03:56:49.254Z,408.91
2019-02-06T03:57:49.236Z,408.96
2019-02-06T03:58:49.253Z,408.58
2019-02-06T03:59:49.221Z,408.61
2019-02-06T04:00:49.207Z,408.52
2019-02-06T04:01:49.206Z,409.02
2019-02-06T04:02:49.198Z,409.11
2019-02-06T04:03:49.191Z,408.66
2019-02-06T04:04:49.165Z,409.25
2019-02-06T04:05:49.159Z,409.00
2019-02-06T04:06:54.996Z,409.28
2019-02-06T04:07:50.140Z,408.57
2019-02-06T04:08:49.135Z,408.55
2019-02-06T04:09:49.113Z,408.85
2019-02-06T04:10:49.235Z,409.04
2019-02-06T04:11:49.216Z,409.05
2019-02-06T04:12:49.077Z,408.92
2019-02-06T04:13:49.094Z,408.47
2019-02-06T04:14:49.059Z,408.97
2019-02-06T04:15:49.041Z,408.87
2019-02-06T04:16:49.120Z,409.09
2019-02-06T04:17:49.026Z,408.88
2019-02-06T04:18:49.029Z,408.70
2019-02-06T04:19:49.033Z,407.84
2019-02-06T04:20:48.994Z,408.60
2019-02-06T04:21:48.988Z,408.83
2019-02-06T04:22:49.024Z,408.68
2019-02-06T04:23:48.961Z,409.25
2019-02-06T04:24:51.528Z,409.70
2019-02-06T04:25:48.930Z,409.22
2019-02-06T04:26:48.932Z,408.98
2019-02-06T04:27:48.905Z,408.36
2019-02-06T04:28:48.904Z,408.67
2019-02-06T04:29:48.910Z,408.90
2019-02-06T04:30:48.895Z,408.67
2019-02-06T04:31:48.867Z,408.88
2019-02-06T04:32:48.866Z,409.30
2019-02-06T04:33:48.881Z,409.21
2019-02-06T04:34:48.833Z,409.13
2019-02-06T04:35:48.849Z,409.27
2019-02-06T04:36:48.818Z,409.82
2019-02-06T04:37:48.810Z,408.70
2019-02-06T04:38:48.800Z,408.96
2019-02-06T04:39:48.788Z,409.82
2019-02-06T04:40:48.776Z,409.36
2019-02-06T04:41:48.759Z,409.45
2019-02-06T04:42:48.751Z,409.11
2019-02-06T04:43:48.743Z,410.09
2019-02-06T04:44:48.734Z,409.24
2019-02-06T04:45:48.738Z,408.64
2019-02-06T04:46:48.742Z,408.69
2019-02-06T04:47:48.692Z,409.66
2019-02-06T04:48:48.676Z,409.79
2019-02-06T04:49:48.674Z,409.64
2019-02-06T04:50:48.682Z,409.35
2019-02-06T04:51:48.650Z,409.31
2019-02-06T04:52:48.650Z,408.92
2019-02-06T04:53:48.624Z,409.19
2019-02-06T04:54:48.623Z,408.39
2019-02-06T04:55:48.603Z,408.93
2019-02-06T04:56:48.612Z,408.38
2019-02-06T04:57:48.586Z,408.46
2019-02-06T04:58:48.584Z,409.71
2019-02-06T04:59:48.583Z,410.54
2019-02-06T05:00:48.569Z,410.05
2019-02-06T05:01:48.550Z,409.78
2019-02-06T05:02:48.516Z,409.24
2019-02-06T05:03:48.516Z,409.62
2019-02-06T05:04:48.508Z,409.41
2019-02-06T05:05:48.488Z,409.83
2019-02-06T05:06:48.504Z,409.63
2019-02-06T05:07:48.485Z,410.00
2019-02-06T05:08:48.449Z,410.06
2019-02-06T05:09:48.456Z,409.66
2019-02-06T05:10:48.433Z,409.19
2019-02-06T05:11:48.432Z,409.66
2019-02-06T05:12:48.441Z,408.30
2019-02-06T05:13:48.454Z,409.33
2019-02-06T05:14:48.401Z,408.48
2019-02-06T05:15:48.389Z,409.02
2019-02-06T05:16:48.371Z,408.45
2019-02-06T05:17:48.377Z,409.04
2019-02-06T05:18:48.347Z,409.30
2019-02-06T05:19:48.335Z,408.40
2019-02-06T05:20:48.333Z,409.14
2019-02-06T05:21:48.325Z,408.77
2019-02-06T05:22:48.325Z,409.97
2019-02-06T05:23:48.291Z,409.93
2019-02-06T05:24:48.297Z,409.26
2019-02-06T05:25:48.280Z,409.20
2019-02-06T05:26:48.273Z,408.98
2019-02-06T05:27:48.281Z,408.97
2019-02-06T05:28:48.238Z,408.59
2019-02-06T05:29:48.224Z,408.68
2019-02-06T05:30:48.224Z,407.80
2019-02-06T05:31:48.207Z,409.11
2019-02-06T05:32:48.205Z,408.44
2019-02-06T05:33:48.204Z,409.27
2019-02-06T05:34:48.191Z,407.95
2019-02-06T05:35:48.169Z,408.71
2019-02-06T05:36:50.782Z,408.15
2019-02-06T05:37:48.153Z,408.77
2019-02-06T05:38:48.168Z,408.65
2019-02-06T05:39:48.129Z,407.66
2019-02-06T05:40:48.114Z,408.11
2019-02-06T05:41:48.101Z,408.93
2019-02-06T05:42:48.093Z,408.00
2019-02-06T05:43:48.101Z,408.58
2019-02-06T05:44:48.071Z,408.00
2019-02-06T05:45:48.059Z,408.14
2019-02-06T05:46:48.057Z,408.28
2019-02-06T05:47:48.062Z,409.11
2019-02-06T05:48:49.389Z,408.56
2019-02-06T05:49:48.016Z,408.84
2019-02-06T05:50:48.001Z,408.43
2019-02-06T05:51:48.007Z,408.66
2019-02-06T05:52:47.984Z,408.59
2019-02-06T05:53:47.967Z,408.87
2019-02-06T05:54:47.971Z,409.18
2019-02-06T05:55:47.947Z,410.57
2019-02-06T05:56:47.935Z,409.93
2019-02-06T05:57:47.938Z,409.10
2019-02-06T05:58:47.920Z,409.45
2019-02-06T05:59:47.944Z,408.60
2019-02-06T06:00:47.890Z,409.34
2019-02-06T06:01:47.888Z,408.54
2019-02-06T06:02:47.871Z,409.10
2019-02-06T06:03:47.864Z,408.27
2019-02-06T06:04:47.871Z,409.02
2019-02-06T06:05:47.842Z,408.91
2019-02-06T06:06:47.844Z,408.93
2019-02-06T06:07:47.820Z,409.35
2019-02-06T06:08:47.818Z,408.35
2019-02-06T06:09:47.837Z,409.23
2019-02-06T06:10:47.785Z,408.94
2019-02-06T06:11:47.786Z,409.02
2019-02-06T06:12:47.767Z,409.06
2019-02-06T06:13:47.767Z,408.20
2019-02-06T06:14:47.746Z,408.62
2019-02-06T06:15:47.742Z,408.16
2019-02-06T06:16:47.726Z,409.19
2019-02-06T06:17:47.707Z,408.22
2019-02-06T06:18:47.692Z,408.10
2019-02-06T06:19:47.681Z,408.92
2019-02-06T06:20:47.687Z,408.30
2019-02-06T06:21:47.668Z,408.30
2019-02-06T06:22:47.658Z,408.38
2019-02-06T06:23:47.659Z,408.93
2019-02-06T06:24:47.631Z,408.27
2019-02-06T06:25:47.637Z,408.65
2019-02-06T06:26:47.622Z,408.71
2019-02-06T06:27:47.609Z,408.49
2019-02-06T06:28:47.583Z,407.55
2019-02-06T06:29:47.584Z,408.14
2019-02-06T06:30:47.639Z,407.58
2019-02-06T06:31:47.557Z,407.91
2019-02-06T06:32:47.548Z,408.43
2019-02-06T06:33:47.537Z,408.88
2019-02-06T06:34:47.519Z,407.86
2019-02-06T06:35:47.529Z,408.61
2019-02-06T06:36:47.512Z,408.16
2019-02-06T06:37:57.790Z,407.97
2019-02-06T06:38:48.485Z,408.50
2019-02-06T06:39:47.483Z,408.12
2019-02-06T06:40:47.465Z,408.33
2019-02-06T06:41:47.472Z,408.07
2019-02-06T06:42:47.448Z,407.87
2019-02-06T06:43:47.429Z,408.14
2019-02-06T06:44:47.423Z,407.89
2019-02-06T06:45:47.414Z,408.20
2019-02-06T06:46:47.421Z,407.75
2019-02-06T06:47:47.393Z,407.60
2019-02-06T06:48:47.391Z,408.64
2019-02-06T06:49:47.369Z,407.65
2019-02-06T06:50:47.356Z,408.03
2019-02-06T06:51:47.359Z,407.94
2019-02-06T06:52:47.343Z,408.17
2019-02-06T06:53:47.317Z,407.92
2019-02-06T06:54:47.313Z,408.65
2019-02-06T06:55:47.305Z,407.51
2019-02-06T06:56:47.315Z,408.46
2019-02-06T06:57:47.339Z,407.53
2019-02-06T06:58:47.266Z,407.91
2019-02-06T06:59:47.266Z,407.08
2019-02-06T07:00:47.259Z,407.20
2019-02-06T07:01:47.275Z,407.14
2019-02-06T07:02:47.241Z,407.35
2019-02-06T07:03:47.234Z,407.49
2019-02-06T07:04:47.240Z,407.67
2019-02-06T07:05:47.194Z,407.36
2019-02-06T07:06:47.180Z,407.02
2019-02-06T07:07:47.268Z,407.30
2019-02-06T07:08:47.152Z,408.45
2019-02-06T07:09:47.150Z,407.63
2019-02-06T07:10:47.132Z,407.29
2019-02-06T07:11:47.123Z,407.88
2019-02-06T07:12:47.154Z,407.22
2019-02-06T07:13:47.108Z,407.52
2019-02-06T07:14:47.080Z,407.39
2019-02-06T07:15:47.084Z,408.19
2019-02-06T07:16:47.095Z,407.36
2019-02-06T07:17:47.099Z,407.83
2019-02-06T07:18:47.055Z,408.10
2019-02-06T07:19:47.048Z,407.48
2019-02-06T07:20:47.028Z,408.17
2019-02-06T07:21:47.032Z,406.98
2019-02-06T07:22:47.046Z,408.29
2019-02-06T07:23:47.036Z,407.81
2019-02-06T07:24:46.983Z,407.68
2019-02-06T07:25:47.020Z,407.03
2019-02-06T07:26:46.954Z,407.65
2019-02-06T07:27:46.964Z,406.96
2019-02-06T07:28:46.961Z,406.69
2019-02-06T07:29:46.960Z,407.42
2019-02-06T07:30:46.920Z,407.50
2019-02-06T07:31:46.942Z,407.21
2019-02-06T07:32:46.923Z,407.15
2019-02-06T07:33:46.927Z,407.63
2019-02-06T07:34:46.881Z,407.30
2019-02-06T07:35:46.889Z,406.76
2019-02-06T07:36:46.850Z,407.58
2019-02-06T07:37:46.849Z,407.25
2019-02-06T07:38:46.845Z,407.22
2019-02-06T07:39:46.850Z,407.06
2019-02-06T07:40:46.816Z,407.62
2019-02-06T07:41:46.804Z,406.84
2019-02-06T07:42:46.779Z,406.91
2019-02-06T07:43:46.791Z,406.99
2019-02-06T07:44:46.775Z,406.71
2019-02-06T07:45:46.757Z,407.05
2019-02-06T07:46:46.745Z,407.03
2019-02-06T07:47:46.737Z,407.09
2019-02-06T07:48:46.745Z,407.34
2019-02-06T07:49:46.725Z,406.89
2019-02-06T07:50:46.716Z,407.68
2019-02-06T07:51:46.679Z,407.68
2019-02-06T07:52:46.692Z,407.84
2019-02-06T07:53:46.708Z,407.09
2019-02-06T07:54:46.661Z,407.69
2019-02-06T07:55:46.651Z,406.97
2019-02-06T07:56:46.635Z,407.48
2019-02-06T07:57:46.641Z,406.37
2019-02-06T07:58:46.612Z,407.44
2019-02-06T07:59:46.626Z,407.04
2019-02-06T08:00:46.593Z,406.84
2019-02-06T08:01:46.575Z,407.21
2019-02-06T08:02:46.570Z,407.34
2019-02-06T08:03:46.561Z,406.65
2019-02-06T08:04:46.561Z,406.84
2019-02-06T08:05:46.540Z,407.17
2019-02-06T08:06:46.536Z,407.22
2019-02-06T08:07:46.514Z,407.28
2019-02-06T08:08:46.494Z,406.90
2019-02-06T08:09:46.508Z,407.14
2019-02-06T08:10:46.485Z,407.17
2019-02-06T08:11:46.481Z,407.15
2019-02-06T08:12:46.464Z,406.84
2019-02-06T08:13:46.472Z,406.69
2019-02-06T08:14:46.457Z,406.87
2019-02-06T08:15:46.426Z,407.05
2019-02-06T08:16:46.436Z,406.93
2019-02-06T08:17:46.409Z,407.08
2019-02-06T08:18:46.407Z,406.77
2019-02-06T08:19:46.404Z,406.84
2019-02-06T08:20:46.375Z,407.05
2019-02-06T08:21:46.368Z,407.45
2019-02-06T08:22:46.363Z,407.23
2019-02-06T08:23:46.351Z,406.59
2019-02-06T08:24:46.349Z,406.44
2019-02-06T08:25:46.314Z,406.77
2019-02-06T08:26:46.316Z,406.70
2019-02-06T08:27:46.307Z,407.45
2019-02-06T08:28:46.297Z,406.97
2019-02-06T08:29:46.291Z,407.69
2019-02-06T08:30:46.314Z,407.67
2019-02-06T08:31:46.261Z,407.31
2019-02-06T08:32:46.250Z,407.52
2019-02-06T08:33:46.247Z,407.28
2019-02-06T08:34:46.258Z,407.15
2019-02-06T08:35:46.213Z,406.79
2019-02-06T08:36:46.210Z,407.06
2019-02-06T08:37:46.200Z,407.94
2019-02-06T08:38:47.898Z,406.88
2019-02-06T08:39:46.207Z,407.42
2019-02-06T08:40:46.156Z,407.51
2019-02-06T08:41:46.147Z,406.90
2019-02-06T08:42:46.144Z,406.70
2019-02-06T08:43:46.131Z,406.82
2019-02-06T08:44:46.114Z,407.65
2019-02-06T08:45:46.125Z,406.83
2019-02-06T08:46:46.090Z,407.34
2019-02-06T08:47:46.079Z,407.78
2019-02-06T08:48:46.076Z,407.14
2019-02-06T08:49:46.052Z,406.98
2019-02-06T08:50:46.077Z,406.80
2019-02-06T08:51:46.040Z,406.90
2019-02-06T08:52:46.026Z,407.58
2019-02-06T08:53:46.010Z,407.33
2019-02-06T08:54:46.033Z,407.68
2019-02-06T08:55:46.017Z,407.55
2019-02-06T08:56:46.031Z,407.57
2019-02-06T08:57:45.983Z,407.41
2019-02-06T08:58:45.969Z,406.67
2019-02-06T08:59:45.946Z,407.80
2019-02-06T09:00:45.952Z,407.67
2019-02-06T09:01:45.931Z,406.95
2019-02-06T09:02:45.929Z,406.91
2019-02-06T09:03:45.919Z,407.56
2019-02-06T09:04:55.465Z,407.19
2019-02-06T09:05:46.913Z,408.06
2019-02-06T09:06:45.872Z,406.91
2019-02-06T09:07:45.854Z,407.52
2019-02-06T09:08:45.851Z,407.73
2019-02-06T09:09:45.841Z,407.15
2019-02-06T09:10:45.864Z,407.33
2019-02-06T09:11:45.826Z,407.58
2019-02-06T09:12:45.804Z,406.96
2019-02-06T09:13:45.790Z,407.72
2019-02-06T09:14:45.805Z,407.75
2019-02-06T09:15:45.794Z,407.71
2019-02-06T09:16:45.789Z,407.67
2019-02-06T09:17:45.747Z,407.34
2019-02-06T09:18:45.745Z,407.05
2019-02-06T09:19:45.727Z,407.89
2019-02-06T09:20:46.171Z,408.09
2019-02-06T09:21:45.705Z,406.88
2019-02-06T09:22:45.695Z,407.57
2019-02-06T09:23:45.693Z,407.31
2019-02-06T09:24:45.681Z,407.86
2019-02-06T09:25:45.659Z,407.50
2019-02-06T09:26:45.673Z,407.85
2019-02-06T09:27:45.642Z,408.18
2019-02-06T09:28:45.638Z,407.45
2019-02-06T09:29:45.632Z,407.21
2019-02-06T09:30:45.633Z,407.60
2019-02-06T09:31:45.634Z,407.03
2019-02-06T09:32:45.600Z,407.17
2019-02-06T09:33:45.575Z,407.44
2019-02-06T09:34:45.567Z,407.92
2019-02-06T09:35:45.574Z,407.13
2019-02-06T09:36:45.567Z,407.17
2019-02-06T09:37:45.539Z,407.63
2019-02-06T09:38:45.521Z,407.45
2019-02-06T09:39:45.511Z,407.06
2019-02-06T09:40:45.498Z,406.59
2019-02-06T09:41:45.574Z,407.67
2019-02-06T09:42:45.497Z,407.80
2019-02-06T09:43:45.471Z,407.27
2019-02-06T09:44:45.465Z,407.57
2019-02-06T09:45:45.449Z,408.48
2019-02-06T09:46:45.455Z,407.86
2019-02-06T09:47:45.436Z,407.83
2019-02-06T09:48:45.427Z,408.70
2019-02-06T09:49:45.407Z,407.64
2019-02-06T09:50:45.413Z,407.52
2019-02-06T09:51:45.396Z,407.65
2019-02-06T09:52:45.458Z,408.70
2019-02-06T09:53:45.363Z,408.11
2019-02-06T09:54:45.337Z,407.31
2019-02-06T09:55:45.345Z,407.69
2019-02-06T09:56:45.346Z,408.40
2019-02-06T09:57:45.324Z,408.61
2019-02-06T09:58:45.304Z,407.85
2019-02-06T09:59:45.311Z,407.11
2019-02-06T10:00:45.276Z,407.52
2019-02-06T10:01:45.288Z,407.90
2019-02-06T10:02:45.266Z,407.21
2019-02-06T10:03:46.968Z,407.66
2019-02-06T10:04:45.234Z,407.54
2019-02-06T10:05:45.222Z,408.08
2019-02-06T10:06:45.237Z,407.71
2019-02-06T10:07:46.266Z,408.18
2019-02-06T10:08:45.265Z,408.57
2019-02-06T10:09:45.189Z,408.70
2019-02-06T10:10:45.167Z,408.17
2019-02-06T10:11:45.180Z,407.25
2019-02-06T10:12:45.163Z,407.79
2019-02-06T10:13:45.217Z,407.49
2019-02-06T10:14:45.128Z,407.26
2019-02-06T10:15:45.116Z,408.20
2019-02-06T10:16:45.134Z,408.37
2019-02-06T10:17:45.095Z,408.93
2019-02-06T10:18:45.082Z,408.41
2019-02-06T10:19:45.066Z,407.99
2019-02-06T10:20:45.063Z,408.30
2019-02-06T10:21:45.073Z,407.78
2019-02-06T10:22:45.042Z,407.52
2019-02-06T10:23:45.033Z,408.60
2019-02-06T10:24:45.018Z,408.53
2019-02-06T10:25:45.002Z,408.64
2019-02-06T10:26:45.002Z,408.47
2019-02-06T10:27:44.982Z,408.76
2019-02-06T10:28:44.988Z,408.70
2019-02-06T10:29:44.967Z,408.48
2019-02-06T10:30:44.950Z,408.46
2019-02-06T10:31:44.967Z,408.15
2019-02-06T10:32:44.929Z,409.35
2019-02-06T10:33:44.910Z,408.41
2019-02-06T10:34:44.926Z,408.55
2019-02-06T10:35:44.895Z,408.11
2019-02-06T10:36:44.894Z,408.34
2019-02-06T10:37:44.916Z,408.30
2019-02-06T10:38:44.851Z,408.99
2019-02-06T10:39:44.861Z,408.37
2019-02-06T10:40:44.843Z,409.11
2019-02-06T10:41:44.862Z,408.48
2019-02-06T10:42:44.823Z,409.32
2019-02-06T10:43:44.799Z,408.39
2019-02-06T10:44:44.795Z,408.89
2019-02-06T10:45:44.788Z,407.37
2019-02-06T10:46:44.775Z,408.67
2019-02-06T10:47:44.786Z,408.82
2019-02-06T10:48:44.760Z,408.36
2019-02-06T10:49:44.736Z,409.18
2019-02-06T10:50:44.724Z,408.80
2019-02-06T10:51:44.721Z,408.35
2019-02-06T10:52:44.740Z,408.58
2019-02-06T10:53:44.727Z,407.56
2019-02-06T10:54:44.711Z,408.60
2019-02-06T10:55:44.693Z,408.86
2019-02-06T10:56:44.669Z,408.74
2019-02-06T10:57:44.657Z,408.99
2019-02-06T10:58:44.651Z,408.81
2019-02-06T10:59:44.617Z,407.86
2019-02-06T11:00:44.626Z,408.40
2019-02-06T11:01:44.648Z,408.30
2019-02-06T11:02:44.607Z,408.69
2019-02-06T11:03:44.595Z,408.48
2019-02-06T11:04:44.579Z,408.95
2019-02-06T11:05:44.555Z,409.33
2019-02-06T11:06:44.539Z,408.06
2019-02-06T11:07:46.213Z,408.58
2019-02-06T11:08:44.538Z,408.68
2019-02-06T11:09:46.462Z,408.81
2019-02-06T11:10:44.511Z,409.22
2019-02-06T11:11:44.515Z,407.70
2019-02-06T11:12:44.495Z,408.30
2019-02-06T11:13:44.523Z,408.95
2019-02-06T11:14:44.463Z,409.29
2019-02-06T11:15:44.457Z,409.94
2019-02-06T11:16:44.436Z,409.51
2019-02-06T11:17:44.449Z,409.74
2019-02-06T11:18:44.695Z,409.22
2019-02-06T11:19:44.420Z,409.57
2019-02-06T11:20:44.391Z,409.26
2019-02-06T11:21:44.421Z,409.03
2019-02-06T11:22:44.387Z,409.45
2019-02-06T11:23:44.359Z,409.19
2019-02-06T11:24:44.344Z,409.23
2019-02-06T11:25:44.339Z,409.22
2019-02-06T11:26:44.343Z,408.75
2019-02-06T11:27:44.328Z,408.76
2019-02-06T11:28:44.325Z,408.82
2019-02-06T11:29:44.302Z,408.58
2019-02-06T11:30:44.304Z,409.10
2019-02-06T11:31:44.280Z,409.83
2019-02-06T11:32:44.292Z,409.52
2019-02-06T11:33:44.255Z,409.32
2019-02-06T11:34:44.232Z,409.51
2019-02-06T11:35:44.225Z,409.00
2019-02-06T11:36:44.216Z,409.21
2019-02-06T11:37:44.259Z,409.57
2019-02-06T11:38:44.200Z,409.65
2019-02-06T11:39:44.204Z,408.57
2019-02-06T11:40:44.258Z,409.51
2019-02-06T11:41:44.205Z,408.18
2019-02-06T11:42:44.166Z,410.43
2019-02-06T11:43:44.174Z,410.44
2019-02-06T11:44:44.134Z,410.81
2019-02-06T11:45:44.112Z,410.53
2019-02-06T11:46:44.116Z,408.03
2019-02-06T11:47:44.084Z,410.20
2019-02-06T11:48:44.092Z,411.84
2019-02-06T11:49:44.071Z,409.29
2019-02-06T11:50:44.141Z,409.88
2019-02-06T11:51:44.053Z,409.75
2019-02-06T11:52:44.045Z,410.03
2019-02-06T11:53:44.040Z,409.40
2019-02-06T11:54:44.009Z,408.76
2019-02-06T11:55:44.012Z,410.25
2019-02-06T11:56:43.992Z,410.25
2019-02-06T11:57:43.991Z,409.85
2019-02-06T11:58:43.991Z,410.28
2019-02-06T11:59:43.982Z,410.58
2019-02-06T12:00:43.949Z,409.53
2019-02-06T12:01:43.958Z,408.63
2019-02-06T12:02:43.932Z,408.45
2019-02-06T12:03:43.936Z,409.85
2019-02-06T12:04:43.912Z,409.91
2019-02-06T12:05:43.887Z,409.83
2019-02-06T12:06:43.886Z,408.75
2019-02-06T12:07:43.881Z,409.80
2019-02-06T12:08:43.903Z,410.02
2019-02-06T12:09:43.850Z,410.37
2019-02-06T12:10:43.846Z,409.84
2019-02-06T12:11:43.841Z,409.93
2019-02-06T12:12:43.829Z,409.69
2019-02-06T12:13:43.927Z,410.07
2019-02-06T12:14:43.802Z,410.27
2019-02-06T12:15:43.790Z,410.50
2019-02-06T12:16:43.789Z,408.73
2019-02-06T12:17:43.790Z,410.65
2019-02-06T12:18:43.799Z,409.07
2019-02-06T12:19:43.747Z,409.33
2019-02-06T12:20:43.802Z,409.74
2019-02-06T12:21:43.741Z,408.69
2019-02-06T12:22:43.763Z,411.74
2019-02-06T12:23:43.787Z,410.49
2019-02-06T12:24:43.788Z,408.40
2019-02-06T12:25:43.682Z,411.37
2019-02-06T12:26:43.673Z,410.23
2019-02-06T12:27:43.671Z,408.88
2019-02-06T12:28:43.666Z,409.52
2019-02-06T12:29:43.627Z,410.59
2019-02-06T12:30:43.615Z,408.72
2019-02-06T12:31:43.609Z,410.18
2019-02-06T12:32:51.903Z,409.65
2019-02-06T12:33:44.634Z,409.55
2019-02-06T12:34:43.582Z,408.83
2019-02-06T12:35:43.566Z,409.61
2019-02-06T12:36:43.583Z,409.99
2019-02-06T12:37:43.551Z,410.26
2019-02-06T12:38:53.218Z,409.87
2019-02-06T12:39:44.548Z,408.78
2019-02-06T12:40:43.509Z,410.40
2019-02-06T12:41:43.489Z,409.97
2019-02-06T12:42:43.496Z,409.46
2019-02-06T12:43:43.470Z,410.34
2019-02-06T12:44:43.481Z,409.61
2019-02-06T12:45:43.451Z,407.30
2019-02-06T12:46:43.466Z,407.04
2019-02-06T12:47:43.423Z,409.21
2019-02-06T12:48:43.424Z,410.39
2019-02-06T12:49:43.414Z,410.23
2019-02-06T12:50:43.410Z,411.03
2019-02-06T12:51:43.389Z,410.18
2019-02-06T12:52:43.383Z,409.46
2019-02-06T12:53:43.366Z,411.16
2019-02-06T12:54:43.366Z,410.98
2019-02-06T12:55:43.352Z,410.97
2019-02-06T12:56:43.334Z,409.66
2019-02-06T12:57:43.333Z,410.29
2019-02-06T12:58:43.300Z,409.56
2019-02-06T12:59:43.334Z,411.31
2019-02-06T13:00:43.289Z,411.28
2019-02-06T13:01:43.290Z,411.34
2019-02-06T13:02:43.272Z,409.18